Time;durP1;ratioP1;P1;durP2;ratioP2;P2;SDS_P1;SDS_P2;PMS_P1;PMS_P2;Temp;Humidity;BMP_temperature;BMP_pressure;BME280_temperature;BME280_humidity;BME280_pressure;Samples;Min_cycle;Max_cycle;Signal;HPM_P1;HPM_P2
2022/09/04 00:01:29;;;;;;;8.68;6.82;;;22.50;62.80;;;;;;5018810;28;20314;-73
2022/09/04 00:03:58;;;;;;;10.80;6.88;;;22.50;62.80;;;;;;5018819;28;20275;-74
2022/09/04 00:06:29;;;;;;;8.07;6.63;;;22.50;62.90;;;;;;5018098;28;20207;-73
2022/09/04 00:09:02;;;;;;;10.05;6.53;;;22.50;62.90;;;;;;5018237;28;20635;-73
2022/09/04 00:11:36;;;;;;;8.77;6.30;;;22.50;62.90;;;;;;5017929;28;20255;-73
2022/09/04 00:14:07;;;;;;;7.00;6.10;;;22.50;63.00;;;;;;5018078;28;20235;-73
2022/09/04 00:16:35;;;;;;;8.73;6.03;;;22.50;63.00;;;;;;5001966;28;20659;-72
2022/09/04 00:19:06;;;;;;;6.82;5.43;;;22.50;63.10;;;;;;5018115;28;20203;-73
2022/09/04 00:21:34;;;;;;;7.25;6.00;;;22.50;63.10;;;;;;5018667;28;20277;-73
2022/09/04 00:24:03;;;;;;;6.63;5.45;;;22.40;63.00;;;;;;5035814;28;20581;-73
2022/09/04 00:26:42;;;;;;;6.47;5.50;;;22.40;63.00;;;;;;5017655;28;20200;-73
2022/09/04 00:29:13;;;;;;;6.93;5.90;;;22.40;63.00;;;;;;5018322;28;20192;-73
2022/09/04 00:31:42;;;;;;;7.60;5.60;;;22.40;63.00;;;;;;5017739;28;20220;-73
2022/09/04 00:34:14;;;;;;;6.95;5.15;;;22.40;63.00;;;;;;5017680;28;20223;-73
2022/09/04 00:36:43;;;;;;;7.53;5.55;;;22.40;63.00;;;;;;5017760;28;20200;-73
2022/09/04 00:39:11;;;;;;;8.50;5.57;;;22.40;63.10;;;;;;5017799;28;20249;-73
2022/09/04 00:41:42;;;;;;;7.28;5.10;;;22.40;63.10;;;;;;5018093;28;20212;-73
2022/09/04 00:44:20;;;;;;;5.65;4.78;;;22.40;63.20;;;;;;5017709;28;20188;-73
2022/09/04 00:46:59;;;;;;;6.00;4.88;;;22.30;63.00;;;;;;5017311;28;20282;-72
2022/09/04 00:49:50;;;;;;;5.10;4.60;;;22.30;63.10;;;;;;5001469;28;20196;-73
2022/09/04 00:52:25;;;;;;;5.78;4.70;;;22.30;63.20;;;;;;4976380;28;20220;-73
2022/09/04 00:55:03;;;;;;;5.97;4.90;;;22.30;63.10;;;;;;5017957;28;20212;-73
2022/09/04 00:58:09;;;;;;;6.65;4.47;;;22.30;63.20;;;;;;5017498;28;20196;-73
2022/09/04 01:00:37;;;;;;;5.30;4.28;;;22.30;63.20;;;;;;4988276;28;20220;-73
2022/09/04 01:03:20;;;;;;;6.03;4.20;;;22.30;63.20;;;;;;5017739;28;20381;-73
2022/09/04 01:06:07;;;;;;;6.25;4.38;;;22.20;63.10;;;;;;5017671;28;20674;-73
2022/09/04 01:08:42;;;;;;;5.63;4.28;;;22.20;63.20;;;;;;5017906;28;20290;-73
2022/09/04 01:11:12;;;;;;;4.78;3.80;;;22.20;63.20;;;;;;5017781;28;20694;-73
2022/09/04 01:13:41;;;;;;;4.55;4.03;;;22.20;63.20;;;;;;5017885;28;20207;-73
2022/09/04 01:16:12;;;;;;;5.07;4.13;;;22.20;63.20;;;;;;5002171;28;20222;-73
2022/09/04 01:18:43;;;;;;;6.30;4.20;;;22.20;63.20;;;;;;5020665;28;20204;-73
2022/09/04 01:21:32;;;;;;;4.38;3.97;;;22.20;63.20;;;;;;5018312;28;20243;-73
2022/09/04 01:24:22;;;;;;;5.10;4.03;;;22.20;63.20;;;;;;5015598;28;20196;-72
2022/09/04 01:26:54;;;;;;;4.63;3.83;;;22.20;63.20;;;;;;5019535;28;20193;-72
2022/09/04 01:29:23;;;;;;;4.95;3.72;;;22.20;63.20;;;;;;5018682;28;20211;-73
2022/09/04 01:31:52;;;;;;;5.35;3.78;;;22.10;63.10;;;;;;5034564;28;20750;-73
2022/09/04 01:34:35;;;;;;;4.70;3.67;;;22.10;63.10;;;;;;5016617;28;20238;-73
2022/09/04 01:37:08;;;;;;;4.25;3.45;;;22.10;63.10;;;;;;5018213;28;20196;-73
2022/09/04 01:39:35;;;;;;;4.03;3.60;;;22.10;63.20;;;;;;5002848;28;20227;-72
2022/09/04 01:42:06;;;;;;;3.97;3.58;;;22.10;63.20;;;;;;5019028;28;20223;-72
2022/09/04 01:44:33;;;;;;;4.32;3.20;;;22.10;63.20;;;;;;5019887;28;20192;-73
2022/09/04 01:47:07;;;;;;;4.53;3.50;;;22.10;63.20;;;;;;5037835;28;20242;-73
2022/09/04 01:49:36;;;;;;;5.35;3.83;;;22.10;63.30;;;;;;5019493;28;20195;-73
2022/09/04 01:52:09;;;;;;;4.22;3.28;;;22.10;63.30;;;;;;5017301;28;20590;-73
2022/09/04 01:54:52;;;;;;;4.35;3.38;;;22.10;63.40;;;;;;5016815;28;20212;-73
2022/09/04 01:57:34;;;;;;;3.65;2.95;;;22.10;63.40;;;;;;5015321;28;20565;-73
2022/09/04 02:00:04;;;;;;;3.40;3.10;;;22.00;63.40;;;;;;5021055;28;20200;-73
2022/09/04 02:02:34;;;;;;;3.55;2.92;;;22.00;63.40;;;;;;5038636;28;20219;-73
2022/09/04 02:05:04;;;;;;;3.38;3.08;;;22.00;63.40;;;;;;5020773;28;20650;-73
2022/09/04 02:07:32;;;;;;;4.00;3.03;;;22.00;63.40;;;;;;5020891;28;20192;-73
2022/09/04 02:10:07;;;;;;;4.57;2.88;;;22.00;63.40;;;;;;5020394;28;20250;-73
2022/09/04 02:12:41;;;;;;;3.42;3.13;;;22.00;63.50;;;;;;5020755;28;20183;-73
2022/09/04 02:15:12;;;;;;;3.42;3.10;;;22.00;63.50;;;;;;5004530;28;20207;-73
2022/09/04 02:17:44;;;;;;;3.22;2.92;;;22.00;63.40;;;;;;5020489;28;20282;-73
2022/09/04 02:20:21;;;;;;;2.90;2.60;;;22.00;63.50;;;;;;5020801;28;20241;-73
2022/09/04 02:22:54;;;;;;;4.10;3.03;;;21.90;63.40;;;;;;5022548;28;20188;-72
2022/09/04 02:25:25;;;;;;;3.88;3.10;;;21.90;63.40;;;;;;5022414;28;20242;-72
2022/09/04 02:28:02;;;;;;;3.17;2.85;;;22.00;63.40;;;;;;5027880;28;20192;-73
2022/09/04 02:30:31;;;;;;;3.42;2.80;;;22.00;63.50;;;;;;5020501;28;20322;-73
2022/09/04 02:33:02;;;;;;;3.72;3.00;;;22.00;63.40;;;;;;5020508;28;20226;-73
2022/09/04 02:35:32;;;;;;;3.15;2.85;;;21.90;63.30;;;;;;5020408;28;20208;-73
2022/09/04 02:38:05;;;;;;;3.13;2.70;;;21.90;63.40;;;;;;5020283;28;20196;-72
2022/09/04 02:40:36;;;;;;;3.08;2.80;;;21.90;63.40;;;;;;5020479;28;20262;-72
2022/09/04 02:43:15;;;;;;;3.10;2.70;;;21.90;63.40;;;;;;5003821;28;20656;-73
2022/09/04 02:45:44;;;;;;;3.03;2.55;;;21.90;63.40;;;;;;5020609;28;20192;-73
2022/09/04 02:48:14;;;;;;;2.60;2.38;;;21.90;63.50;;;;;;5004513;28;20200;-73
2022/09/04 02:50:49;;;;;;;2.88;2.25;;;21.90;63.50;;;;;;5021179;28;20705;-72
2022/09/04 02:53:19;;;;;;;4.20;2.67;;;21.90;63.50;;;;;;5006821;28;20199;-73
2022/09/04 02:56:08;;;;;;;2.60;2.40;;;21.90;63.50;;;;;;5020053;28;20240;-73
2022/09/04 02:58:45;;;;;;;3.28;2.30;;;21.80;63.40;;;;;;5019138;28;20196;-73
2022/09/04 03:01:13;;;;;;;3.40;2.55;;;21.80;63.40;;;;;;5019049;28;20227;-73
2022/09/04 03:03:43;;;;;;;2.72;2.50;;;21.90;63.50;;;;;;5019066;28;20200;-73
2022/09/04 03:06:12;;;;;;;3.22;2.50;;;21.80;63.40;;;;;;5019112;28;20254;-73
2022/09/04 03:08:42;;;;;;;2.60;2.40;;;21.80;63.40;;;;;;5018263;28;20196;-73
2022/09/04 03:11:14;;;;;;;2.75;2.17;;;21.80;63.40;;;;;;5019488;28;20220;-73
2022/09/04 03:13:46;;;;;;;2.40;2.20;;;21.80;63.30;;;;;;5018955;28;20200;-73
2022/09/04 03:16:17;;;;;;;2.08;1.95;;;21.80;63.20;;;;;;5018878;28;20216;-73
2022/09/04 03:18:56;;;;;;;2.55;2.35;;;21.80;63.10;;;;;;5020310;28;20242;-73
2022/09/04 03:21:24;;;;;;;2.45;2.17;;;21.90;63.00;;;;;;5019266;28;20638;-73
2022/09/04 03:23:52;;;;;;;2.63;2.15;;;21.90;62.90;;;;;;5020366;28;20573;-72
2022/09/04 03:26:23;;;;;;;2.97;2.20;;;21.90;62.70;;;;;;5019611;28;20570;-73
2022/09/04 03:29:07;;;;;;;2.63;2.17;;;21.90;62.40;;;;;;5018402;28;20200;-73
2022/09/04 03:31:38;;;;;;;2.10;1.90;;;22.00;62.30;;;;;;5018478;28;20212;-73
2022/09/04 03:34:19;;;;;;;2.20;2.00;;;22.10;62.20;;;;;;5018568;28;20195;-73
2022/09/04 03:36:52;;;;;;;2.13;1.85;;;22.10;61.90;;;;;;5018438;28;20199;-72
2022/09/04 03:39:22;;;;;;;2.10;2.00;;;22.20;61.70;;;;;;5018377;28;20188;-73
2022/09/04 03:41:59;;;;;;;2.08;1.90;;;22.20;61.40;;;;;;5018860;28;20317;-73
2022/09/04 03:44:31;;;;;;;2.05;1.85;;;22.30;61.30;;;;;;5018469;28;20238;-73
2022/09/04 03:47:02;;;;;;;2.33;1.88;;;22.30;60.90;;;;;;5018288;28;20295;-73
2022/09/04 03:49:41;;;;;;;2.40;1.98;;;22.30;60.90;;;;;;5018114;28;20188;-73
2022/09/04 03:52:13;;;;;;;3.33;1.90;;;22.40;60.80;;;;;;5018030;28;20633;-73
2022/09/04 03:54:50;;;;;;;1.80;1.70;;;22.40;60.70;;;;;;5018014;28;20204;-73
2022/09/04 03:57:26;;;;;;;2.30;1.98;;;22.40;60.50;;;;;;5018234;28;20563;-73
2022/09/04 04:00:10;;;;;;;2.63;1.70;;;22.50;60.40;;;;;;5018042;28;20234;-73
2022/09/04 04:02:52;;;;;;;2.13;1.92;;;22.50;60.20;;;;;;5001933;28;20199;-72
2022/09/04 04:05:36;;;;;;;2.00;1.80;;;22.50;60.20;;;;;;5035483;28;20203;-73
2022/09/04 04:08:21;;;;;;;1.95;1.80;;;22.50;60.00;;;;;;5015102;28;20204;-73
2022/09/04 04:10:55;;;;;;;1.90;1.80;;;22.50;60.00;;;;;;5018134;28;20241;-73
2022/09/04 04:13:49;;;;;;;1.95;1.65;;;22.50;60.00;;;;;;5018199;28;20181;-73
2022/09/04 04:16:24;;;;;;;1.85;1.70;;;22.50;60.00;;;;;;5017545;28;20223;-73
2022/09/04 04:19:09;;;;;;;1.95;1.67;;;22.50;60.00;;;;;;5018257;28;20200;-73
2022/09/04 04:21:54;;;;;;;1.92;1.70;;;22.50;60.00;;;;;;5034538;28;20298;-73
2022/09/04 04:24:53;;;;;;;1.77;1.65;;;22.50;60.00;;;;;;5017655;28;20192;-73
2022/09/04 04:27:28;;;;;;;1.75;1.60;;;22.50;60.00;;;;;;5017441;28;20193;-73
2022/09/04 04:30:05;;;;;;;1.80;1.70;;;22.50;59.90;;;;;;5017369;28;20197;-73
2022/09/04 04:33:11;;;;;;;1.65;1.55;;;22.50;59.80;;;;;;5017327;28;20220;-73
2022/09/04 04:35:42;;;;;;;1.95;1.60;;;22.50;59.70;;;;;;4997829;28;20211;-73
2022/09/04 04:38:18;;;;;;;3.78;1.73;;;22.50;59.70;;;;;;5017195;28;20192;-73
2022/09/04 04:40:58;;;;;;;1.50;1.40;;;22.50;59.70;;;;;;5017241;28;20219;-73
2022/09/04 04:43:29;;;;;;;1.60;1.50;;;22.50;59.60;;;;;;5017264;28;20669;-73
2022/09/04 04:45:57;;;;;;;1.52;1.42;;;22.50;59.60;;;;;;5035157;28;20675;-73
2022/09/04 04:48:50;;;;;;;1.60;1.50;;;22.60;59.60;;;;;;5034801;28;20647;-73
2022/09/04 04:51:30;;;;;;;1.70;1.60;;;22.50;59.50;;;;;;5017234;28;20216;-73
2022/09/04 04:54:00;;;;;;;1.70;1.60;;;22.50;59.60;;;;;;5034665;28;20204;-72
2022/09/04 04:56:30;;;;;;;2.28;1.50;;;22.50;59.60;;;;;;5034458;28;20204;-73
2022/09/04 04:59:01;;;;;;;1.63;1.52;;;22.50;59.70;;;;;;5034768;28;20180;-73
2022/09/04 05:01:35;;;;;;;1.67;1.58;;;22.50;60.30;;;;;;5016998;28;20224;-72
2022/09/04 05:04:08;;;;;;;1.55;1.45;;;22.50;59.70;;;;;;5016764;28;20188;-72
2022/09/04 05:06:39;;;;;;;1.50;1.40;;;22.40;59.70;;;;;;5035025;28;20172;-72
2022/09/04 05:09:13;;;;;;;1.50;1.40;;;22.40;59.80;;;;;;5017250;28;20628;-72
2022/09/04 05:11:45;;;;;;;1.45;1.35;;;22.40;59.90;;;;;;5018222;28;20224;-72
2022/09/04 05:14:21;;;;;;;1.40;1.30;;;22.40;59.90;;;;;;5016768;28;20188;-72
2022/09/04 05:16:52;;;;;;;1.50;1.40;;;22.40;60.00;;;;;;5002271;28;20220;-72
2022/09/04 05:19:23;;;;;;;1.55;1.30;;;22.30;59.90;;;;;;5000376;28;20204;-72
2022/09/04 05:21:55;;;;;;;1.60;1.50;;;22.30;60.00;;;;;;5017686;28;20314;-72
2022/09/04 05:24:25;;;;;;;1.70;1.60;;;22.30;59.90;;;;;;5016800;28;20654;-72
2022/09/04 05:26:54;;;;;;;1.50;1.40;;;22.30;60.00;;;;;;5017217;28;20283;-72
2022/09/04 05:29:25;;;;;;;1.60;1.40;;;22.30;60.00;;;;;;5016555;28;20583;-72
2022/09/04 05:31:54;;;;;;;2.08;1.45;;;22.30;60.00;;;;;;5034158;28;20628;-72
2022/09/04 05:34:27;;;;;;;1.50;1.40;;;22.30;60.00;;;;;;4984391;28;20239;-72
2022/09/04 05:37:03;;;;;;;1.42;1.33;;;22.30;60.00;;;;;;5017306;28;20316;-72
2022/09/04 05:39:31;;;;;;;1.50;1.40;;;22.30;60.00;;;;;;5019295;28;20569;-72
2022/09/04 05:42:13;;;;;;;2.03;1.40;;;22.30;60.00;;;;;;5017044;28;20713;-72
2022/09/04 05:44:47;;;;;;;2.60;1.90;;;22.30;60.00;;;;;;5016291;28;20196;-72
2022/09/04 05:47:19;;;;;;;1.40;1.30;;;22.30;60.00;;;;;;5016297;28;20643;-72
2022/09/04 05:49:55;;;;;;;1.35;1.20;;;22.30;59.90;;;;;;5016373;28;20208;-72
2022/09/04 05:52:33;;;;;;;1.45;1.35;;;22.30;60.60;;;;;;5016149;28;20220;-72
2022/09/04 05:55:06;;;;;;;1.38;1.27;;;22.40;59.60;;;;;;5016247;28;20593;-73
2022/09/04 05:57:40;;;;;;;1.58;1.40;;;22.50;59.50;;;;;;4999964;28;20192;-72
2022/09/04 06:00:09;;;;;;;1.50;1.40;;;22.50;59.40;;;;;;5016589;28;20192;-72
2022/09/04 06:03:02;;;;;;;1.60;1.50;;;22.60;59.10;;;;;;5016312;28;20196;-72
2022/09/04 06:05:41;;;;;;;1.38;1.27;;;22.70;58.80;;;;;;5016221;28;20662;-72
2022/09/04 06:08:17;;;;;;;1.35;1.25;;;22.90;58.40;;;;;;5016287;28;20631;-73
2022/09/04 06:10:50;;;;;;;1.33;1.23;;;23.10;57.70;;;;;;5015848;28;20219;-72
2022/09/04 06:13:25;;;;;;;1.77;1.30;;;23.40;57.30;;;;;;5016206;28;20200;-72
2022/09/04 06:15:57;;;;;;;1.73;1.33;;;23.50;56.80;;;;;;4999844;28;20666;-72
2022/09/04 06:18:43;;;;;;;1.42;1.33;;;23.70;57.20;;;;;;5017275;28;20192;-72
2022/09/04 06:21:20;;;;;;;1.40;1.30;;;23.70;56.20;;;;;;5016504;28;20644;-72
2022/09/04 06:23:59;;;;;;;1.35;1.30;;;23.80;56.20;;;;;;5016725;28;20192;-73
2022/09/04 06:26:31;;;;;;;1.33;1.23;;;23.80;56.00;;;;;;5016522;28;20196;-72
2022/09/04 06:29:22;;;;;;;1.42;1.30;;;23.90;55.70;;;;;;5016631;28;20188;-72
2022/09/04 06:32:14;;;;;;;1.70;1.60;;;24.00;55.60;;;;;;5016856;28;20220;-73
2022/09/04 06:35:00;;;;;;;1.60;1.50;;;24.20;55.30;;;;;;5016980;28;20215;-71
2022/09/04 06:37:32;;;;;;;2.00;1.67;;;24.20;55.20;;;;;;5018000;28;20203;-71
2022/09/04 06:40:15;;;;;;;1.40;1.30;;;24.20;55.10;;;;;;5017317;28;20205;-71
2022/09/04 06:42:55;;;;;;;1.35;1.25;;;24.20;55.10;;;;;;5016794;28;20238;-72
2022/09/04 06:45:26;;;;;;;1.90;1.80;;;24.20;55.10;;;;;;5019592;28;20219;-70
2022/09/04 06:48:02;;;;;;;2.10;2.00;;;24.20;55.20;;;;;;5019350;28;20287;-71
2022/09/04 06:50:32;;;;;;;1.80;1.70;;;24.20;55.20;;;;;;5019369;28;20219;-72
2022/09/04 06:53:07;;;;;;;1.52;1.40;;;24.20;55.20;;;;;;5019298;28;20282;-71
2022/09/04 06:55:41;;;;;;;1.60;1.50;;;24.20;55.10;;;;;;5019245;28;20241;-71
2022/09/04 06:58:23;;;;;;;1.33;1.17;;;24.30;55.10;;;;;;5019507;28;20200;-72
2022/09/04 07:00:53;;;;;;;1.63;1.38;;;24.40;54.80;;;;;;5003168;28;20216;-72
2022/09/04 07:03:30;;;;;;;1.58;1.48;;;24.50;54.40;;;;;;5019324;28;20200;-72
2022/09/04 07:05:59;;;;;;;1.13;1.10;;;24.70;54.20;;;;;;5019442;28;20196;-72
2022/09/04 07:08:32;;;;;;;1.40;1.30;;;24.80;53.80;;;;;;5019793;28;20192;-72
2022/09/04 07:11:09;;;;;;;1.20;1.20;;;25.00;53.50;;;;;;5021160;28;20273;-71
2022/09/04 07:13:50;;;;;;;1.30;1.20;;;25.10;53.10;;;;;;5020978;28;20200;-72
2022/09/04 07:16:29;;;;;;;1.45;1.35;;;25.30;53.30;;;;;;5018796;28;20208;-71
2022/09/04 07:19:17;;;;;;;1.27;1.20;;;25.50;52.20;;;;;;5003912;28;20326;-72
2022/09/04 07:21:49;;;;;;;1.40;1.30;;;25.60;51.60;;;;;;5003489;28;20274;-71
2022/09/04 07:24:44;;;;;;;1.25;1.25;;;25.80;51.40;;;;;;5036693;28;20713;-72
2022/09/04 07:27:15;;;;;;;1.15;1.05;;;25.90;51.10;;;;;;5019397;28;20192;-72
2022/09/04 07:29:45;;;;;;;1.08;1.08;;;26.00;50.90;;;;;;5018809;28;20207;-72
2022/09/04 07:32:17;;;;;;;1.40;1.30;;;26.20;50.70;;;;;;5019338;28;20219;-72
2022/09/04 07:34:49;;;;;;;1.08;1.05;;;26.20;50.50;;;;;;5018634;28;20295;-71
2022/09/04 07:37:23;;;;;;;1.15;1.02;;;26.30;50.50;;;;;;5018887;28;20265;-72
2022/09/04 07:39:57;;;;;;;1.10;1.10;;;26.30;50.30;;;;;;5018529;28;20504;-72
2022/09/04 07:42:28;;;;;;;1.40;1.30;;;26.40;50.10;;;;;;5037168;28;20216;-72
2022/09/04 07:44:59;;;;;;;1.15;1.10;;;26.50;50.20;;;;;;5037258;28;20203;-73
2022/09/04 07:47:29;;;;;;;1.63;1.52;;;26.50;50.20;;;;;;5019171;28;20200;-71
2022/09/04 07:50:00;;;;;;;1.67;1.50;;;26.60;50.10;;;;;;5036896;28;20659;-72
2022/09/04 07:52:35;;;;;;;3.08;1.52;;;26.60;50.70;;;;;;5022397;28;20215;-72
2022/09/04 07:55:14;;;;;;;1.65;1.55;;;26.60;51.20;;;;;;5018241;28;20199;-72
2022/09/04 07:58:19;;;;;;;2.35;2.00;;;26.60;51.20;;;;;;5018087;28;20210;-72
2022/09/04 08:00:54;;;;;;;5.97;1.98;;;26.60;52.00;;;;;;5018397;28;20705;-71
2022/09/04 08:03:33;;;;;;;2.95;2.00;;;26.70;52.20;;;;;;5017775;28;20621;-71
2022/09/04 08:06:02;;;;;;;1.98;1.88;;;26.70;51.90;;;;;;5017836;28;20286;-71
2022/09/04 08:09:00;;;;;;;2.80;2.10;;;26.80;52.40;;;;;;5017994;28;20720;-72
2022/09/04 08:11:38;;;;;;;2.20;2.00;;;26.90;52.50;;;;;;5018015;28;20232;-72
2022/09/04 08:14:17;;;;;;;2.58;1.83;;;26.80;52.40;;;;;;5035463;28;20199;-71
2022/09/04 08:16:51;;;;;;;2.95;1.98;;;26.90;52.40;;;;;;5018422;28;20215;-71
2022/09/04 08:19:31;;;;;;;3.78;1.80;;;26.90;52.40;;;;;;5017672;28;20191;-71
2022/09/04 08:21:58;;;;;;;44.35;18.55;;;27.10;51.60;;;;;;5017833;28;20223;-72
2022/09/04 08:24:48;;;;;;;78.90;38.08;;;27.10;52.60;;;;;;5018008;28;20205;-71
2022/09/04 08:27:23;;;;;;;30.08;15.63;;;27.10;52.40;;;;;;5017785;28;20192;-70
2022/09/04 08:29:56;;;;;;;35.72;16.00;;;27.20;53.00;;;;;;5017520;28;20199;-72
2022/09/04 08:32:53;;;;;;;35.58;15.52;;;27.20;52.60;;;;;;5017450;28;20269;-70
2022/09/04 08:35:23;;;;;;;28.38;13.18;;;27.20;52.90;;;;;;4991985;28;20207;-72
2022/09/04 08:38:01;;;;;;;27.83;12.35;;;27.30;52.30;;;;;;5017431;28;20215;-72
2022/09/04 08:40:49;;;;;;;21.98;11.18;;;27.30;52.40;;;;;;5017406;28;20203;-72
2022/09/04 08:43:29;;;;;;;14.65;7.43;;;27.40;52.20;;;;;;5000729;28;20249;-70
2022/09/04 08:46:15;;;;;;;12.18;6.25;;;27.40;52.30;;;;;;5017135;28;20195;-71
2022/09/04 08:49:33;;;;;;;11.05;5.55;;;27.40;52.30;;;;;;5017243;28;20196;-71
2022/09/04 08:52:39;;;;;;;10.40;5.45;;;27.50;52.30;;;;;;5034676;28;20215;-72
2022/09/04 08:55:45;;;;;;;12.23;6.13;;;27.50;51.90;;;;;;5004398;28;20286;-70
2022/09/04 08:58:38;;;;;;;12.75;6.05;;;27.60;51.60;;;;;;5018039;28;20219;-72
2022/09/04 09:01:17;;;;;;;10.40;5.03;;;27.70;51.40;;;;;;5017128;28;20219;-71
2022/09/04 09:04:15;;;;;;;9.82;4.20;;;27.70;51.40;;;;;;5017099;28;20202;-72
2022/09/04 09:07:05;;;;;;;5.90;3.67;;;27.70;51.10;;;;;;5018354;28;20180;-71
2022/09/04 09:10:09;;;;;;;4.70;3.03;;;27.70;51.30;;;;;;5020870;28;20200;-71
2022/09/04 09:12:56;;;;;;;4.43;2.90;;;27.70;50.90;;;;;;5017587;28;20487;-72
2022/09/04 09:15:38;;;;;;;4.88;2.80;;;27.60;51.90;;;;;;5020818;28;20184;-71
2022/09/04 09:18:16;;;;;;;5.53;3.15;;;27.50;52.30;;;;;;5017705;28;20222;-71
2022/09/04 09:20:46;;;;;;;5.60;3.05;;;27.50;52.30;;;;;;5017407;28;20230;-72
2022/09/04 09:23:18;;;;;;;4.07;2.60;;;27.30;52.50;;;;;;5017858;28;20226;-71
2022/09/04 09:26:07;;;;;;;4.25;2.38;;;27.40;51.90;;;;;;5016917;28;20265;-72
2022/09/04 09:29:11;;;;;;;4.63;2.60;;;27.30;51.60;;;;;;5017107;28;20200;-74
2022/09/04 09:32:02;;;;;;;3.42;2.22;;;27.30;51.70;;;;;;5017157;28;20218;-72
2022/09/04 09:34:51;;;;;;;2.40;2.20;;;27.30;51.40;;;;;;5017169;28;20659;-72
2022/09/04 09:37:57;;;;;;;2.20;1.85;;;27.10;51.90;;;;;;5034253;28;20209;-72
2022/09/04 09:40:54;;;;;;;3.08;1.90;;;27.10;52.50;;;;;;5016322;28;20191;-71
2022/09/04 09:43:40;;;;;;;2.70;2.20;;;27.00;52.50;;;;;;4997316;28;20199;-72
2022/09/04 09:46:44;;;;;;;2.75;2.20;;;26.90;52.90;;;;;;5016309;28;20692;-72
2022/09/04 09:50:03;;;;;;;2.70;2.10;;;26.90;53.50;;;;;;5016368;28;20195;-72
2022/09/04 09:53:10;;;;;;;3.95;2.17;;;26.80;54.10;;;;;;4937939;29;20214;-73
2022/09/04 09:55:57;;;;;;;2.35;2.15;;;26.80;53.00;;;;;;5016043;28;20214;-72
2022/09/04 09:58:59;;;;;;;2.47;2.20;;;26.80;53.20;;;;;;5016111;28;20199;-73
2022/09/04 10:01:42;;;;;;;2.28;1.90;;;26.70;53.70;;;;;;5016092;28;20281;-73
2022/09/04 10:04:39;;;;;;;1.80;1.70;;;26.60;54.00;;;;;;5017803;28;20638;-74
2022/09/04 10:07:30;;;;;;;2.70;2.22;;;26.60;54.00;;;;;;4999096;28;20607;-73
2022/09/04 10:10:09;;;;;;;3.55;2.20;;;26.60;54.20;;;;;;5013708;28;20681;-73
2022/09/04 10:13:24;;;;;;;2.80;1.80;;;26.70;54.50;;;;;;4996144;28;20204;-73
2022/09/04 10:16:12;;;;;;;2.05;1.95;;;26.80;53.40;;;;;;4995531;28;20208;-73
2022/09/04 10:19:18;;;;;;;1.98;1.80;;;26.90;52.90;;;;;;4998561;28;20228;-72
2022/09/04 10:22:18;;;;;;;2.28;1.90;;;26.90;52.70;;;;;;5000276;28;20238;-73
2022/09/04 10:25:09;;;;;;;1.88;1.77;;;27.00;52.70;;;;;;5003680;28;20262;-73
2022/09/04 10:28:14;;;;;;;1.65;1.55;;;27.00;51.50;;;;;;5000444;28;20266;-73
2022/09/04 10:30:55;;;;;;;2.10;1.90;;;27.00;51.90;;;;;;4986048;28;20224;-73
2022/09/04 10:33:30;;;;;;;2.25;1.88;;;27.00;51.00;;;;;;5000170;28;20207;-72
2022/09/04 10:36:05;;;;;;;2.97;1.83;;;27.00;51.90;;;;;;5000342;28;20184;-73
2022/09/04 10:40:34;;;;;;;1.73;1.63;;;27.00;51.80;;;;;;5000706;28;20211;-72
2022/09/04 10:41:43;;;;;;;3.35;1.90;;;27.00;51.80;;;;;;5026632;28;20311;-73
2022/09/04 10:44:24;;;;;;;2.40;1.70;;;27.00;51.70;;;;;;5004532;28;20195;-73
2022/09/04 10:46:56;;;;;;;1.70;1.60;;;26.80;51.70;;;;;;5029408;28;20192;-73
2022/09/04 10:49:51;;;;;;;7.10;2.47;;;26.80;52.10;;;;;;5019463;28;20203;-72
2022/09/04 10:52:40;;;;;;;4.25;1.50;;;26.80;52.10;;;;;;5019294;28;20219;-72
2022/09/04 10:55:26;;;;;;;2.95;1.80;;;26.80;52.10;;;;;;5020594;28;20187;-71
2022/09/04 10:58:26;;;;;;;2.17;1.60;;;26.90;52.10;;;;;;5004605;28;20261;-72
2022/09/04 11:01:09;;;;;;;1.85;1.67;;;26.90;51.90;;;;;;5018935;28;20227;-72
2022/09/04 11:03:53;;;;;;;4.65;1.60;;;27.00;51.80;;;;;;5024208;28;20200;-71
2022/09/04 11:06:38;;;;;;;1.70;1.60;;;27.00;52.30;;;;;;5001300;28;20286;-72
2022/09/04 11:09:18;;;;;;;1.80;1.45;;;27.00;52.50;;;;;;5008755;28;20196;-71
2022/09/04 11:12:12;;;;;;;1.85;1.63;;;27.10;52.50;;;;;;5018624;28;20215;-71
2022/09/04 11:14:48;;;;;;;1.50;1.40;;;27.10;52.30;;;;;;5035921;28;20275;-71
2022/09/04 11:17:42;;;;;;;2.28;1.50;;;27.10;52.40;;;;;;5018122;28;20242;-72
2022/09/04 11:20:39;;;;;;;2.95;1.65;;;27.00;52.20;;;;;;5012857;28;20199;-71
2022/09/04 11:23:30;;;;;;;4.60;1.50;;;27.00;52.40;;;;;;5023421;28;20254;-71
2022/09/04 11:26:25;;;;;;;4.47;1.63;;;27.10;52.60;;;;;;5018772;28;20202;-71
2022/09/04 11:29:01;;;;;;;1.75;1.65;;;27.00;52.30;;;;;;5017938;28;20230;-71
2022/09/04 11:31:34;;;;;;;1.98;1.73;;;27.10;52.50;;;;;;5018017;28;20223;-71
2022/09/04 11:34:34;;;;;;;1.50;1.40;;;27.10;52.50;;;;;;5008297;28;20203;-72
2022/09/04 11:37:18;;;;;;;1.73;1.63;;;27.10;53.10;;;;;;5017937;28;20223;-72
2022/09/04 11:39:55;;;;;;;2.47;1.58;;;27.10;52.50;;;;;;5036170;28;20627;-71
2022/09/04 11:42:34;;;;;;;2.25;1.98;;;27.10;52.40;;;;;;5017041;28;20251;-72
2022/09/04 11:45:37;;;;;;;4.18;1.35;;;27.10;52.40;;;;;;5014196;28;20200;-71
2022/09/04 11:48:24;;;;;;;3.50;1.70;;;27.10;52.50;;;;;;5005966;28;20203;-72
2022/09/04 11:51:06;;;;;;;1.77;1.60;;;27.10;52.70;;;;;;4997318;28;20732;-72
2022/09/04 11:53:59;;;;;;;1.60;1.40;;;27.10;52.40;;;;;;4996967;28;20294;-72
2022/09/04 11:56:33;;;;;;;1.88;1.48;;;27.00;52.50;;;;;;4992588;28;20227;-72
2022/09/04 11:59:32;;;;;;;1.70;1.60;;;27.00;52.50;;;;;;4997214;28;20192;-71
2022/09/04 12:02:19;;;;;;;1.80;1.70;;;27.00;52.50;;;;;;4997930;28;20256;-71
2022/09/04 12:05:03;;;;;;;1.77;1.30;;;27.10;52.70;;;;;;5026630;28;20234;-72
2022/09/04 12:07:37;;;;;;;1.65;1.55;;;27.00;53.20;;;;;;4999392;28;20206;-72
2022/09/04 12:10:19;;;;;;;3.60;1.45;;;27.00;52.10;;;;;;5015552;28;20172;-71
2022/09/04 12:13:06;;;;;;;2.00;1.80;;;27.00;52.50;;;;;;5010781;28;20207;-73
2022/09/04 12:15:53;;;;;;;1.92;1.65;;;26.90;52.20;;;;;;5003462;28;20207;-73
2022/09/04 12:18:56;;;;;;;2.97;1.52;;;26.90;52.20;;;;;;5016004;28;20269;-73
2022/09/04 12:21:59;;;;;;;1.52;1.30;;;26.90;52.30;;;;;;5016670;28;20314;-73
2022/09/04 12:24:41;;;;;;;1.50;1.35;;;26.80;52.20;;;;;;4995561;28;20680;-73
2022/09/04 12:27:20;;;;;;;2.17;1.50;;;26.80;52.30;;;;;;5017450;28;20274;-73
2022/09/04 12:30:05;;;;;;;1.65;1.55;;;26.80;52.30;;;;;;5017528;28;20195;-74
2022/09/04 12:33:01;;;;;;;1.88;1.55;;;26.70;52.40;;;;;;5017498;28;20705;-73
2022/09/04 12:36:02;;;;;;;2.25;1.60;;;26.70;52.50;;;;;;5017476;28;20207;-73
2022/09/04 12:38:59;;;;;;;1.55;1.40;;;26.60;52.50;;;;;;5035200;28;20199;-73
2022/09/04 12:41:28;;;;;;;1.50;1.40;;;26.60;52.50;;;;;;4992391;28;20686;-73
2022/09/04 12:44:02;;;;;;;2.03;1.45;;;26.60;52.60;;;;;;5017125;28;20196;-73
2022/09/04 12:46:39;;;;;;;2.78;1.60;;;26.60;52.70;;;;;;5017108;28;20567;-73
2022/09/04 12:49:18;;;;;;;2.03;1.60;;;26.50;52.60;;;;;;5017188;28;20290;-73
2022/09/04 12:51:48;;;;;;;1.60;1.50;;;26.50;52.60;;;;;;5034640;28;20211;-73
2022/09/04 12:54:23;;;;;;;1.60;1.50;;;26.50;52.60;;;;;;5017285;28;20210;-74
2022/09/04 12:56:54;;;;;;;1.67;1.30;;;26.50;52.70;;;;;;5017020;28;20203;-73
2022/09/04 12:59:35;;;;;;;1.48;1.30;;;26.40;52.80;;;;;;5000732;28;20196;-73
2022/09/04 13:02:04;;;;;;;1.48;1.38;;;26.30;52.80;;;;;;5016749;28;20694;-74
2022/09/04 13:04:37;;;;;;;1.50;1.40;;;26.30;52.90;;;;;;5016680;28;20225;-73
2022/09/04 13:07:17;;;;;;;1.50;1.40;;;26.30;53.00;;;;;;5016772;28;20188;-74
2022/09/04 13:09:46;;;;;;;1.48;1.38;;;26.20;53.10;;;;;;5016706;28;20195;-73
2022/09/04 13:12:19;;;;;;;1.63;1.50;;;26.20;53.20;;;;;;5017007;28;20219;-73
2022/09/04 13:15:04;;;;;;;1.67;1.58;;;26.20;53.20;;;;;;5016746;28;20192;-73
2022/09/04 13:17:34;;;;;;;1.52;1.40;;;26.20;53.30;;;;;;4989939;28;20581;-73
2022/09/04 13:20:07;;;;;;;1.40;1.27;;;26.20;53.20;;;;;;5016640;28;20230;-74
2022/09/04 13:22:39;;;;;;;1.50;1.40;;;26.20;53.20;;;;;;5017497;28;20188;-73
2022/09/04 13:25:10;;;;;;;1.67;1.20;;;26.20;53.20;;;;;;5016692;28;20716;-73
2022/09/04 13:27:50;;;;;;;1.50;1.40;;;26.20;53.20;;;;;;5016395;28;20634;-74
2022/09/04 13:30:20;;;;;;;1.60;1.27;;;26.20;53.10;;;;;;5034606;28;20187;-73
2022/09/04 13:33:05;;;;;;;1.42;1.33;;;26.20;53.20;;;;;;5016923;28;20226;-73
2022/09/04 13:35:40;;;;;;;1.40;1.30;;;26.20;53.20;;;;;;5016409;28;20282;-74
2022/09/04 13:38:36;;;;;;;2.20;1.30;;;26.20;53.20;;;;;;5016539;28;20226;-74
2022/09/04 13:41:21;;;;;;;1.40;1.30;;;26.20;53.20;;;;;;5016100;28;20223;-73
2022/09/04 13:44:26;;;;;;;1.55;1.45;;;26.20;53.30;;;;;;5016308;28;20191;-74
2022/09/04 13:46:58;;;;;;;1.45;1.35;;;26.20;53.30;;;;;;5004378;28;20290;-73
2022/09/04 13:49:26;;;;;;;1.50;1.40;;;26.10;53.20;;;;;;5016093;28;20652;-73